This is the latest recevied weather packets stored in our database for station/object OM4MO-10. If no packets are shown the sender has not sent any weather packets the latest 10 day(s).
| Time | Temp. | Humidity | Pressure | Rain* | Wind** | Luminosity | Snow |
|---|---|---|---|---|---|---|---|
| 1777416627 | 6.11° C | 64% | 1021.1 hPa | - | - | - | - |
| 1777415427 | 6.67° C | 53% | 1023.7 hPa | - | - | - | - |
| 1777414227 | 6.11° C | 55% | 1023.5 hPa | - | - | - | - |
| 1777413027 | 6.11° C | 56% | 1023 hPa | - | - | - | - |
| 1777411827 | 7.22° C | 56% | 1023.4 hPa | - | - | - | - |
| 1777410627 | 7.78° C | 56% | 1023.6 hPa | - | - | - | - |
| 1777409427 | 8.89° C | 45% | 1026.9 hPa | - | - | - | - |
| 1777408227 | 7.78° C | 50% | 1025.3 hPa | - | - | - | - |
| 1777407027 | 8.89° C | 49% | 1024.9 hPa | - | - | - | - |
| 1777405827 | 8.89° C | 49% | 1024.2 hPa | - | - | - | - |
| 1777404626 | 9.44° C | 45% | 1026.8 hPa | - | - | - | - |
| 1777403426 | 10° C | 43% | 1028.1 hPa | - | - | - | - |
| 1777402226 | 10.56° C | 46% | 1026.8 hPa | - | - | - | - |
| 1777401026 | 10.56° C | 45% | 1026 hPa | - | - | - | - |
| 1777399826 | 11.11° C | 44% | 1027.2 hPa | - | - | - | - |
| 1777398626 | 11.11° C | 44% | 1027.7 hPa | - | - | - | - |
| 1777397426 | 12.78° C | 40% | 1029.4 hPa | - | - | - | - |
| 1777396226 | 13.89° C | 37% | 1031.3 hPa | - | - | - | - |
| 1777395025 | 15.56° C | 35% | 1032.5 hPa | - | - | - | - |
| 1777393825 | 15.56° C | 35% | 1032.9 hPa | - | - | - | - |
| 1777392625 | 16.11° C | 32% | 1034.9 hPa | - | - | - | - |
| 1777391425 | 17.22° C | 32% | 1035.3 hPa | - | - | - | - |
| 1777390224 | 16.67° C | 33% | 1035.2 hPa | - | - | - | - |
| 1777389024 | 17.22° C | 31% | 1035.8 hPa | - | - | - | - |
| 1777387824 | 17.78° C | 32% | 1035.4 hPa | - | - | - | - |
* Rain since midnight (hover to see other rain measurements)
** Current wind speed in m/s (hover to see current wind gust speed)